createdAt,value
2023-03-31T00:01:14.084Z,12.66
2023-03-31T00:03:44.850Z,12.43
2023-03-31T00:06:18.378Z,12.21
2023-03-31T00:08:51.974Z,12.30
2023-03-31T00:11:23.533Z,13.50
2023-03-31T00:13:51.610Z,14.51
2023-03-31T00:16:19.736Z,14.97
2023-03-31T00:18:51.006Z,14.44
2023-03-31T00:21:33.917Z,13.77
2023-03-31T00:24:10.426Z,13.23
2023-03-31T00:26:38.672Z,12.87
2023-03-31T00:29:08.777Z,12.59
2023-03-31T00:31:38.933Z,12.37
2023-03-31T00:34:07.498Z,12.16
2023-03-31T00:36:37.002Z,11.98
2023-03-31T00:39:09.402Z,12.07
2023-03-31T00:41:39.272Z,13.30
2023-03-31T00:44:22.912Z,14.42
2023-03-31T00:47:02.449Z,14.66
2023-03-31T00:49:45.297Z,13.98
2023-03-31T00:52:23.018Z,13.31
2023-03-31T00:54:58.242Z,12.83
2023-03-31T00:57:28.707Z,12.48
2023-03-31T00:59:59.784Z,12.20
2023-03-31T01:02:28.810Z,12.23
2023-03-31T01:05:02.177Z,13.33
2023-03-31T01:07:42.469Z,14.42
2023-03-31T01:10:11.311Z,14.61
2023-03-31T01:12:41.580Z,13.91
2023-03-31T01:15:17.514Z,13.25
2023-03-31T01:17:46.068Z,12.76
2023-03-31T01:20:29.868Z,12.37
2023-03-31T01:23:22.402Z,12.67
2023-03-31T01:25:53.250Z,14.02
2023-03-31T01:28:45.710Z,14.94
2023-03-31T01:31:21.670Z,15.25
2023-03-31T01:34:27.677Z,14.47
2023-03-31T01:37:33.170Z,13.64
2023-03-31T01:40:33.817Z,13.07
2023-03-31T01:43:13.789Z,12.66
2023-03-31T01:46:01.923Z,12.38
2023-03-31T01:48:44.167Z,12.18
2023-03-31T01:51:38.324Z,12.34
2023-03-31T01:54:20.358Z,13.77
2023-03-31T01:57:15.364Z,14.89
2023-03-31T01:59:58.379Z,14.73
2023-03-31T02:02:29.075Z,13.90
2023-03-31T02:05:17.156Z,13.34
2023-03-31T02:07:55.099Z,12.87
2023-03-31T02:10:25.807Z,12.55
2023-03-31T02:12:54.935Z,12.31
2023-03-31T02:15:27.175Z,12.65
2023-03-31T02:17:56.875Z,13.83
2023-03-31T02:20:26.224Z,14.82
2023-03-31T02:22:56.352Z,15.35
2023-03-31T02:25:29.804Z,14.85
2023-03-31T02:28:00.975Z,14.19
2023-03-31T02:30:37.284Z,13.70
2023-03-31T02:33:05.405Z,13.33
2023-03-31T02:35:36.775Z,13.02
2023-03-31T02:38:06.854Z,12.76
2023-03-31T02:40:34.969Z,12.53
2023-03-31T02:43:02.851Z,12.34
2023-03-31T02:45:52.226Z,12.17
2023-03-31T02:48:21.308Z,12.29
2023-03-31T02:51:07.649Z,13.43
2023-03-31T02:53:57.609Z,14.78
2023-03-31T02:56:47.202Z,15.03
2023-03-31T02:59:24.280Z,14.29
2023-03-31T03:02:08.815Z,13.66
2023-03-31T03:04:42.641Z,13.21
2023-03-31T03:07:40.695Z,12.93
2023-03-31T03:11:21.885Z,12.68
2023-03-31T03:14:09.617Z,12.42
2023-03-31T03:16:41.694Z,12.27
2023-03-31T03:19:09.838Z,12.14
2023-03-31T03:21:37.806Z,12.00
2023-03-31T03:24:06.052Z,11.87
2023-03-31T03:26:35.341Z,12.02
2023-03-31T03:29:03.354Z,13.32
2023-03-31T03:31:33.668Z,14.60
2023-03-31T03:34:01.947Z,15.13
2023-03-31T03:36:30.384Z,14.53
2023-03-31T03:38:58.601Z,13.83
2023-03-31T03:41:26.627Z,13.29
2023-03-31T03:43:54.725Z,12.87
2023-03-31T03:46:22.948Z,12.55
2023-03-31T03:48:51.067Z,12.27
2023-03-31T03:51:18.983Z,12.02
2023-03-31T03:53:46.919Z,11.78
2023-03-31T03:56:15.018Z,11.58
2023-03-31T03:58:43.076Z,11.39
2023-03-31T04:01:11.017Z,11.41
2023-03-31T04:03:41.667Z,12.25
2023-03-31T04:06:09.956Z,13.58
2023-03-31T04:08:38.123Z,14.37
2023-03-31T04:11:18.955Z,13.87
2023-03-31T04:13:47.547Z,13.13
2023-03-31T04:16:16.945Z,12.61
2023-03-31T04:18:44.872Z,12.21
2023-03-31T04:21:22.850Z,11.89
2023-03-31T04:23:59.000Z,11.63
2023-03-31T04:26:39.241Z,11.39
2023-03-31T04:29:07.646Z,11.16
2023-03-31T04:31:38.800Z,11.08
2023-03-31T04:34:06.920Z,11.88
2023-03-31T04:36:34.871Z,13.10
2023-03-31T04:39:03.170Z,13.77
2023-03-31T04:41:31.029Z,13.26
2023-03-31T04:43:59.052Z,12.59
2023-03-31T04:46:28.100Z,12.10
2023-03-31T04:48:59.251Z,11.74
2023-03-31T04:51:27.761Z,11.46
2023-03-31T04:53:55.947Z,11.24
2023-03-31T04:56:23.944Z,11.05
2023-03-31T04:58:52.078Z,10.87
2023-03-31T05:01:33.159Z,10.97
2023-03-31T05:04:01.316Z,12.29
2023-03-31T05:06:38.940Z,13.51
2023-03-31T05:09:07.254Z,14.05
2023-03-31T05:11:38.384Z,13.48
2023-03-31T05:14:06.565Z,12.85
2023-03-31T05:16:34.666Z,12.43
2023-03-31T05:19:03.012Z,12.12
2023-03-31T05:21:33.992Z,11.92
2023-03-31T05:24:01.959Z,11.75
2023-03-31T05:26:30.309Z,11.63
2023-03-31T05:28:58.191Z,11.48
2023-03-31T05:31:27.931Z,11.35
2023-03-31T05:33:55.883Z,11.50
2023-03-31T05:36:27.350Z,12.52
2023-03-31T05:38:55.775Z,13.69
2023-03-31T05:41:23.656Z,14.43
2023-03-31T05:43:51.740Z,14.06
2023-03-31T05:46:19.891Z,13.46
2023-03-31T05:48:47.864Z,13.01
2023-03-31T05:51:15.802Z,12.70
2023-03-31T05:53:44.897Z,12.48
2023-03-31T05:56:13.807Z,12.28
2023-03-31T05:58:42.049Z,12.11
2023-03-31T06:01:12.516Z,11.98
2023-03-31T06:03:41.861Z,11.86
2023-03-31T06:06:10.676Z,11.76
2023-03-31T06:08:39.145Z,11.66
2023-03-31T06:11:12.666Z,11.80
2023-03-31T06:13:40.999Z,13.00
2023-03-31T06:16:11.270Z,14.24
2023-03-31T06:18:40.016Z,14.94
2023-03-31T06:21:08.875Z,14.58
2023-03-31T06:23:37.254Z,14.05
2023-03-31T06:26:08.795Z,13.72
2023-03-31T06:28:36.821Z,13.48
2023-03-31T06:31:12.039Z,13.33
2023-03-31T06:33:41.418Z,13.20
2023-03-31T06:36:10.239Z,13.11
2023-03-31T06:38:39.473Z,13.05
2023-03-31T06:41:08.900Z,13.00
2023-03-31T06:43:37.785Z,12.98
2023-03-31T06:46:06.245Z,12.97
2023-03-31T06:48:34.527Z,12.98
2023-03-31T06:51:04.585Z,13.02
2023-03-31T06:53:32.797Z,13.08
2023-03-31T06:56:01.198Z,13.41
2023-03-31T06:58:31.325Z,14.82
2023-03-31T07:01:02.970Z,16.19
2023-03-31T07:03:32.113Z,16.86
2023-03-31T07:06:00.657Z,16.44
2023-03-31T07:08:31.611Z,15.92
2023-03-31T07:11:01.043Z,15.58
2023-03-31T07:13:29.148Z,15.36
2023-03-31T07:15:57.489Z,15.21
2023-03-31T07:18:34.414Z,15.07
2023-03-31T07:21:07.179Z,14.93
2023-03-31T07:23:36.997Z,14.81
2023-03-31T07:26:06.453Z,14.70
2023-03-31T07:28:34.452Z,14.60
2023-03-31T07:31:02.351Z,14.51
2023-03-31T07:33:30.365Z,14.42
2023-03-31T07:36:10.794Z,14.37
2023-03-31T07:38:40.670Z,14.43
2023-03-31T07:41:17.144Z,14.55
2023-03-31T07:43:45.621Z,14.72
2023-03-31T07:46:21.906Z,14.87
2023-03-31T07:48:50.679Z,14.99
2023-03-31T07:51:21.657Z,15.13
2023-03-31T07:53:49.666Z,15.28
2023-03-31T07:56:19.088Z,15.42
2023-03-31T07:58:47.197Z,15.53
2023-03-31T13:02:25.192Z,15.31
2023-03-31T13:05:00.539Z,16.58
2023-03-31T13:07:31.494Z,17.90
2023-03-31T13:10:28.651Z,18.54
2023-03-31T13:13:03.534Z,17.96
2023-03-31T13:15:33.011Z,17.42
2023-03-31T13:18:03.634Z,17.04
2023-03-31T13:20:38.715Z,16.71
2023-03-31T13:24:07.092Z,16.45
2023-03-31T13:32:25.775Z,15.95
2023-03-31T13:35:32.390Z,15.84
2023-03-31T13:38:09.764Z,15.74
2023-03-31T13:40:54.690Z,15.65
2023-03-31T13:43:45.746Z,15.53
2023-03-31T13:46:53.011Z,15.81
2023-03-31T13:49:33.616Z,17.30
2023-03-31T13:52:03.993Z,18.13
2023-03-31T13:54:44.108Z,17.73
2023-03-31T13:57:49.441Z,17.13
2023-03-31T14:00:27.336Z,16.62
2023-03-31T14:03:32.143Z,16.30
2023-03-31T14:06:06.715Z,16.00
2023-03-31T14:09:00.457Z,15.82
2023-03-31T14:11:32.001Z,15.66
2023-03-31T14:14:15.575Z,15.53
2023-03-31T14:17:03.200Z,15.85
2023-03-31T14:20:11.151Z,17.20
2023-03-31T14:22:58.569Z,18.47
2023-03-31T14:26:02.457Z,18.87
2023-03-31T14:29:12.993Z,18.04
2023-03-31T14:35:19.279Z,16.84
2023-03-31T14:38:18.315Z,16.53
2023-03-31T14:40:52.017Z,16.37
2023-03-31T14:43:22.210Z,16.25
2023-03-31T14:46:05.078Z,16.14
2023-03-31T14:48:51.253Z,16.47
2023-03-31T14:51:50.647Z,18.05
2023-03-31T14:54:20.375Z,19.09
2023-03-31T14:56:55.565Z,19.10
2023-03-31T14:59:27.529Z,18.49
2023-03-31T15:02:05.674Z,17.94
2023-03-31T15:07:13.717Z,17.28
2023-03-31T15:09:46.515Z,17.05
2023-03-31T15:12:17.173Z,16.86
2023-03-31T15:14:47.741Z,16.68
2023-03-31T15:17:26.764Z,16.49
2023-03-31T15:19:57.755Z,16.26
2023-03-31T15:22:31.570Z,16.22
2023-03-31T15:25:00.158Z,16.93
2023-03-31T15:27:37.776Z,17.90
2023-03-31T15:30:08.764Z,18.66
2023-03-31T15:32:39.440Z,18.90
2023-03-31T15:35:32.702Z,18.23
2023-03-31T15:43:36.072Z,16.42
2023-03-31T15:47:21.078Z,16.12
2023-03-31T15:56:20.172Z,18.26
2023-03-31T15:59:22.473Z,17.70
2023-03-31T16:01:51.451Z,16.91
2023-03-31T16:04:19.616Z,16.33
2023-03-31T16:07:05.202Z,15.88
2023-03-31T16:09:58.281Z,15.53
2023-03-31T16:12:38.852Z,15.24
2023-03-31T16:15:17.885Z,15.41
2023-03-31T16:17:48.564Z,16.58
2023-03-31T16:20:28.590Z,17.32
2023-03-31T16:23:04.162Z,17.80
2023-03-31T16:25:47.503Z,17.94
2023-03-31T16:28:18.381Z,17.36
2023-03-31T16:30:48.906Z,16.77
2023-03-31T16:33:23.836Z,16.34
2023-03-31T16:36:27.479Z,16.02
2023-03-31T16:38:57.942Z,16.13
2023-03-31T16:41:28.780Z,17.00
2023-03-31T16:43:56.881Z,17.57
2023-03-31T16:46:25.176Z,17.92
2023-03-31T16:48:53.531Z,18.26
2023-03-31T16:51:22.355Z,18.37
2023-03-31T16:53:50.308Z,17.78
2023-03-31T16:56:19.115Z,17.19
2023-03-31T16:58:47.277Z,16.70
2023-03-31T17:01:15.691Z,16.31
2023-03-31T17:03:43.879Z,16.26
2023-03-31T17:06:19.159Z,17.19
2023-03-31T17:08:47.554Z,18.05
2023-03-31T17:11:34.605Z,18.52
2023-03-31T17:14:51.666Z,18.57
2023-03-31T17:17:24.116Z,17.63
2023-03-31T17:19:53.175Z,17.01
2023-03-31T17:22:21.765Z,16.53
2023-03-31T17:24:52.972Z,16.44
2023-03-31T17:27:21.649Z,17.30
2023-03-31T17:29:49.826Z,17.89
2023-03-31T17:32:17.963Z,18.25
2023-03-31T17:34:48.062Z,18.46
2023-03-31T17:37:31.320Z,17.88
2023-03-31T17:40:18.861Z,17.16
2023-03-31T17:42:50.176Z,16.61
2023-03-31T17:45:18.217Z,16.47
2023-03-31T17:47:46.371Z,17.28
2023-03-31T17:50:14.729Z,17.96
2023-03-31T17:52:42.788Z,18.38
2023-03-31T17:55:11.579Z,18.45
2023-03-31T17:57:41.484Z,17.77
2023-03-31T18:00:10.697Z,17.09
2023-03-31T18:02:47.224Z,16.58
2023-03-31T18:05:18.128Z,16.17
2023-03-31T18:07:47.293Z,16.09
2023-03-31T18:10:15.368Z,16.97
2023-03-31T18:12:43.433Z,17.81
2023-03-31T18:15:12.206Z,18.27
2023-03-31T18:17:43.387Z,18.11
2023-03-31T18:20:13.106Z,17.37
2023-03-31T18:22:44.902Z,16.66
2023-03-31T18:25:13.472Z,16.13
2023-03-31T18:27:42.305Z,15.67
2023-03-31T18:30:17.293Z,15.28
2023-03-31T18:32:53.446Z,15.20
2023-03-31T18:35:23.475Z,15.84
2023-03-31T18:37:51.687Z,16.24
2023-03-31T18:40:19.749Z,16.56
2023-03-31T18:42:48.814Z,16.87
2023-03-31T18:45:17.236Z,17.20
2023-03-31T18:47:45.907Z,17.32
2023-03-31T18:50:14.258Z,16.70
2023-03-31T18:52:43.864Z,16.00
2023-03-31T18:55:16.796Z,15.41
2023-03-31T18:57:45.459Z,14.93
2023-03-31T19:00:15.088Z,14.56
2023-03-31T19:02:43.837Z,14.93
2023-03-31T19:05:16.895Z,15.57
2023-03-31T19:07:44.984Z,15.90
2023-03-31T19:10:13.507Z,16.28
2023-03-31T19:12:54.942Z,16.44
2023-03-31T19:21:12.739Z,14.53
2023-03-31T19:23:43.837Z,14.35
2023-03-31T19:26:15.623Z,15.20
2023-03-31T19:28:46.164Z,16.02
2023-03-31T19:31:15.636Z,16.45
2023-03-31T19:33:45.250Z,15.92
2023-03-31T19:36:14.268Z,15.18
2023-03-31T19:38:42.360Z,14.55
2023-03-31T19:41:11.437Z,14.05
2023-03-31T19:43:41.133Z,13.93
2023-03-31T19:46:10.168Z,14.79
2023-03-31T19:48:39.011Z,15.62
2023-03-31T19:51:08.545Z,16.12
2023-03-31T19:53:38.219Z,15.58
2023-03-31T19:56:16.353Z,14.83
2023-03-31T19:58:44.864Z,14.20
2023-03-31T20:01:23.637Z,13.75
2023-03-31T20:03:53.819Z,13.62
2023-03-31T20:06:24.826Z,14.51
2023-03-31T20:08:55.958Z,15.35
2023-03-31T20:11:26.223Z,15.91
2023-03-31T20:13:55.105Z,15.83
2023-03-31T20:16:26.097Z,14.96
2023-03-31T20:19:00.279Z,14.16
2023-03-31T20:21:30.564Z,13.74
2023-03-31T20:23:59.625Z,14.43
2023-03-31T20:26:30.254Z,15.15
2023-03-31T20:29:02.553Z,15.25
2023-03-31T20:31:37.321Z,14.52
2023-03-31T20:34:14.221Z,13.84
2023-03-31T20:36:45.545Z,13.73
2023-03-31T20:39:15.020Z,14.46
2023-03-31T20:41:44.714Z,15.05
2023-03-31T20:44:15.557Z,15.51
2023-03-31T20:46:44.873Z,15.03
2023-03-31T20:49:14.006Z,14.27
2023-03-31T20:51:43.178Z,13.84
2023-03-31T20:54:11.944Z,14.55
2023-03-31T20:56:41.743Z,15.12
2023-03-31T20:59:11.941Z,15.01
2023-03-31T21:01:42.513Z,14.31
2023-03-31T21:04:11.646Z,13.63
2023-03-31T21:06:45.342Z,13.31
2023-03-31T21:09:15.147Z,14.03
2023-03-31T21:11:43.922Z,14.92
2023-03-31T21:14:14.986Z,15.17
2023-03-31T21:16:44.147Z,14.55
2023-03-31T21:19:12.894Z,13.81
2023-03-31T21:21:43.825Z,13.25
2023-03-31T21:24:13.212Z,13.01
2023-03-31T21:26:42.575Z,13.74
2023-03-31T21:29:10.744Z,14.58
2023-03-31T21:31:41.736Z,15.26
2023-03-31T21:34:10.964Z,15.55
2023-03-31T21:36:39.640Z,14.95
2023-03-31T21:39:09.601Z,14.19
2023-03-31T21:41:40.630Z,13.62
2023-03-31T21:44:09.325Z,13.19
2023-03-31T21:46:38.143Z,13.04
2023-03-31T21:49:06.335Z,13.92
2023-03-31T21:51:34.356Z,14.85
2023-03-31T21:54:02.611Z,15.49
2023-03-31T21:56:32.366Z,15.64
2023-03-31T21:59:08.903Z,14.94
2023-03-31T22:01:37.433Z,14.17
2023-03-31T22:04:06.164Z,13.59
2023-03-31T22:06:34.638Z,13.13
2023-03-31T22:09:03.128Z,12.76
2023-03-31T22:11:54.613Z,12.69
2023-03-31T22:14:28.154Z,13.77
2023-03-31T22:16:57.206Z,14.68
2023-03-31T22:19:25.081Z,15.33
2023-03-31T22:21:58.787Z,15.41
2023-03-31T22:24:32.746Z,14.62
2023-03-31T22:27:06.093Z,13.86
2023-03-31T22:29:34.575Z,13.31
2023-03-31T22:32:02.677Z,12.88
2023-03-31T22:34:30.677Z,12.77
2023-03-31T22:36:59.913Z,13.66
2023-03-31T22:39:30.531Z,14.70
2023-03-31T22:41:59.641Z,15.40
2023-03-31T22:44:27.573Z,15.63
2023-03-31T22:46:55.906Z,14.87
2023-03-31T22:49:23.980Z,14.03
2023-03-31T22:51:58.769Z,13.41
2023-03-31T22:54:29.425Z,12.91
2023-03-31T22:56:57.794Z,12.78
2023-03-31T22:59:26.096Z,13.63
2023-03-31T23:01:54.567Z,14.52
2023-03-31T23:04:23.157Z,15.12
2023-03-31T23:06:52.832Z,15.35
2023-03-31T23:09:22.071Z,14.73
2023-03-31T23:11:50.634Z,13.99
2023-03-31T23:14:18.542Z,13.43
2023-03-31T23:16:47.510Z,13.01
2023-03-31T23:19:15.776Z,12.67
2023-03-31T23:21:44.940Z,12.62
2023-03-31T23:24:12.906Z,13.64
2023-03-31T23:26:41.061Z,14.61
2023-03-31T23:29:09.408Z,15.27
2023-03-31T23:31:37.578Z,15.51
2023-03-31T23:34:05.592Z,14.87
2023-03-31T23:36:33.715Z,14.12
2023-03-31T23:39:02.843Z,13.54
2023-03-31T23:41:31.155Z,13.10
2023-03-31T23:43:59.676Z,12.77
2023-03-31T23:46:27.995Z,12.53
2023-03-31T23:48:56.404Z,12.61
2023-03-31T23:51:24.533Z,13.70
2023-03-31T23:53:53.289Z,14.74
2023-03-31T23:56:21.777Z,15.42
2023-03-31T23:58:49.962Z,15.64
